sensor_id;sensor_type;location;lat;lon;timestamp;pressure;altitude;pressure_sealevel;temperature;humidity
63088;BME280;49173;43.164;27.786;2022-08-19T00:01:51;100000.81;;;25.15;65.21
63088;BME280;49173;43.164;27.786;2022-08-19T00:04:19;100009.25;;;25.14;65.08
63088;BME280;49173;43.164;27.786;2022-08-19T00:06:46;100014.06;;;25.12;65.32
63088;BME280;49173;43.164;27.786;2022-08-19T00:09:15;100010.47;;;25.11;65.45
63088;BME280;49173;43.164;27.786;2022-08-19T00:11:43;100012.38;;;25.11;65.35
63088;BME280;49173;43.164;27.786;2022-08-19T00:14:11;100012.56;;;25.09;65.56
63088;BME280;49173;43.164;27.786;2022-08-19T00:16:38;100018.06;;;25.09;65.33
63088;BME280;49173;43.164;27.786;2022-08-19T00:19:04;100010.38;;;25.05;65.41
63088;BME280;49173;43.164;27.786;2022-08-19T00:21:30;100014.16;;;25.04;65.25
63088;BME280;49173;43.164;27.786;2022-08-19T00:23:57;100013.44;;;25.02;65.40
63088;BME280;49173;43.164;27.786;2022-08-19T00:26:25;100015.53;;;25.00;65.17
63088;BME280;49173;43.164;27.786;2022-08-19T00:28:51;100019.69;;;24.96;65.64
63088;BME280;49173;43.164;27.786;2022-08-19T00:31:17;100019.41;;;24.90;65.85
63088;BME280;49173;43.164;27.786;2022-08-19T00:33:43;100009.25;;;24.91;65.97
63088;BME280;49173;43.164;27.786;2022-08-19T00:36:10;100014.75;;;24.91;65.61
63088;BME280;49173;43.164;27.786;2022-08-19T00:38:38;100006.03;;;24.87;65.96
63088;BME280;49173;43.164;27.786;2022-08-19T00:41:12;100011.50;;;24.87;65.68
63088;BME280;49173;43.164;27.786;2022-08-19T00:43:39;100010.00;;;24.85;65.71
63088;BME280;49173;43.164;27.786;2022-08-19T00:46:05;100017.56;;;24.83;65.46
63088;BME280;49173;43.164;27.786;2022-08-19T00:48:32;100012.44;;;24.80;65.59
63088;BME280;49173;43.164;27.786;2022-08-19T00:50:59;100015.56;;;24.77;66.19
63088;BME280;49173;43.164;27.786;2022-08-19T00:53:28;100021.59;;;24.72;66.00
63088;BME280;49173;43.164;27.786;2022-08-19T00:55:58;100025.38;;;24.71;66.28
63088;BME280;49173;43.164;27.786;2022-08-19T00:58:30;100020.09;;;24.70;66.00
63088;BME280;49173;43.164;27.786;2022-08-19T01:00:58;100019.78;;;24.64;66.18
63088;BME280;49173;43.164;27.786;2022-08-19T01:03:24;100019.97;;;24.63;66.35
63088;BME280;49173;43.164;27.786;2022-08-19T01:05:51;100024.78;;;24.61;66.31
63088;BME280;49173;43.164;27.786;2022-08-19T01:08:20;100027.34;;;24.62;66.27
63088;BME280;49173;43.164;27.786;2022-08-19T01:10:49;100019.31;;;24.61;66.04
63088;BME280;49173;43.164;27.786;2022-08-19T01:13:16;100015.88;;;24.59;66.16
63088;BME280;49173;43.164;27.786;2022-08-19T01:15:49;100015.00;;;24.58;66.28
63088;BME280;49173;43.164;27.786;2022-08-19T01:18:18;100009.25;;;24.53;65.67
63088;BME280;49173;43.164;27.786;2022-08-19T01:20:45;100015.41;;;24.55;65.49
63088;BME280;49173;43.164;27.786;2022-08-19T01:23:12;100011.50;;;24.50;65.66
63088;BME280;49173;43.164;27.786;2022-08-19T01:25:50;100018.69;;;24.51;65.39
63088;BME280;49173;43.164;27.786;2022-08-19T01:28:23;100018.88;;;24.49;65.87
63088;BME280;49173;43.164;27.786;2022-08-19T01:30:51;100016.31;;;24.48;65.41
63088;BME280;49173;43.164;27.786;2022-08-19T01:33:19;100006.38;;;24.47;65.06
63088;BME280;49173;43.164;27.786;2022-08-19T01:35:45;100014.63;;;24.47;65.21
63088;BME280;49173;43.164;27.786;2022-08-19T01:38:22;100012.22;;;24.44;64.99
63088;BME280;49173;43.164;27.786;2022-08-19T01:40:49;100009.84;;;24.41;64.76
63088;BME280;49173;43.164;27.786;2022-08-19T01:43:15;100008.16;;;24.40;64.67
63088;BME280;49173;43.164;27.786;2022-08-19T01:45:41;100010.91;;;24.40;64.92
63088;BME280;49173;43.164;27.786;2022-08-19T01:48:07;100007.66;;;24.36;65.00
63088;BME280;49173;43.164;27.786;2022-08-19T01:50:34;99997.53;;;24.36;64.78
63088;BME280;49173;43.164;27.786;2022-08-19T01:53:01;100006.78;;;24.35;64.95
63088;BME280;49173;43.164;27.786;2022-08-19T01:55:27;100005.94;;;24.35;65.03
63088;BME280;49173;43.164;27.786;2022-08-19T01:57:56;100004.41;;;24.32;64.18
63088;BME280;49173;43.164;27.786;2022-08-19T02:00:26;100002.53;;;24.33;64.42
63088;BME280;49173;43.164;27.786;2022-08-19T02:02:53;99993.06;;;24.35;64.07
63088;BME280;49173;43.164;27.786;2022-08-19T02:05:19;100001.13;;;24.37;64.50
63088;BME280;49173;43.164;27.786;2022-08-19T02:07:47;99998.56;;;24.35;64.10
63088;BME280;49173;43.164;27.786;2022-08-19T02:10:20;100004.06;;;24.35;63.99
63088;BME280;49173;43.164;27.786;2022-08-19T02:12:47;100002.66;;;24.31;64.36
63088;BME280;49173;43.164;27.786;2022-08-19T02:15:13;99998.78;;;24.26;64.19
63088;BME280;49173;43.164;27.786;2022-08-19T02:17:39;99989.00;;;24.23;64.55
63088;BME280;49173;43.164;27.786;2022-08-19T02:20:05;99990.63;;;24.18;64.41
63088;BME280;49173;43.164;27.786;2022-08-19T02:22:33;99993.50;;;24.16;64.72
63088;BME280;49173;43.164;27.786;2022-08-19T02:24:59;99994.94;;;24.12;65.17
63088;BME280;49173;43.164;27.786;2022-08-19T02:27:25;99980.91;;;24.07;65.01
63088;BME280;49173;43.164;27.786;2022-08-19T02:29:52;99992.38;;;24.02;65.27
63088;BME280;49173;43.164;27.786;2022-08-19T02:32:19;99995.31;;;24.01;65.16
63088;BME280;49173;43.164;27.786;2022-08-19T02:34:46;99993.63;;;24.00;64.97
63088;BME280;49173;43.164;27.786;2022-08-19T02:37:13;100001.19;;;23.98;65.06
63088;BME280;49173;43.164;27.786;2022-08-19T02:39:58;99994.34;;;23.94;65.22
63088;BME280;49173;43.164;27.786;2022-08-19T02:42:24;100000.19;;;23.91;64.86
63088;BME280;49173;43.164;27.786;2022-08-19T02:44:50;99999.50;;;23.89;65.07
63088;BME280;49173;43.164;27.786;2022-08-19T02:47:17;99993.34;;;23.87;64.93
63088;BME280;49173;43.164;27.786;2022-08-19T02:49:45;99987.19;;;23.84;64.97
63088;BME280;49173;43.164;27.786;2022-08-19T02:52:11;99990.97;;;23.83;65.39
63088;BME280;49173;43.164;27.786;2022-08-19T02:54:37;99995.94;;;23.80;65.54
63088;BME280;49173;43.164;27.786;2022-08-19T02:57:05;99996.13;;;23.78;65.43
63088;BME280;49173;43.164;27.786;2022-08-19T02:59:32;99992.88;;;23.75;65.65
63088;BME280;49173;43.164;27.786;2022-08-19T03:01:58;99998.22;;;23.76;65.50
63088;BME280;49173;43.164;27.786;2022-08-19T03:04:24;99992.03;;;23.74;65.61
63088;BME280;49173;43.164;27.786;2022-08-19T03:06:50;99992.03;;;23.74;65.45
63088;BME280;49173;43.164;27.786;2022-08-19T03:09:18;100000.75;;;23.78;65.73
63088;BME280;49173;43.164;27.786;2022-08-19T03:11:45;99998.34;;;23.75;65.80
63088;BME280;49173;43.164;27.786;2022-08-19T03:14:12;100000.63;;;23.71;65.66
63088;BME280;49173;43.164;27.786;2022-08-19T03:16:47;100011.56;;;23.71;65.36
63088;BME280;49173;43.164;27.786;2022-08-19T03:19:15;100005.91;;;23.73;65.38
63088;BME280;49173;43.164;27.786;2022-08-19T03:21:43;100005.25;;;23.71;65.71
63088;BME280;49173;43.164;27.786;2022-08-19T03:24:10;100015.16;;;23.72;65.89
63088;BME280;49173;43.164;27.786;2022-08-19T03:26:42;100011.22;;;23.74;65.47
63088;BME280;49173;43.164;27.786;2022-08-19T03:29:08;100018.44;;;23.75;65.16
63088;BME280;49173;43.164;27.786;2022-08-19T03:31:38;100010.72;;;23.71;65.73
63088;BME280;49173;43.164;27.786;2022-08-19T03:34:04;100017.44;;;23.68;65.80
63088;BME280;49173;43.164;27.786;2022-08-19T03:36:30;100019.47;;;23.66;65.66
63088;BME280;49173;43.164;27.786;2022-08-19T03:38:59;100020.88;;;23.62;65.86
63088;BME280;49173;43.164;27.786;2022-08-19T03:41:38;100019.84;;;23.63;65.63
63088;BME280;49173;43.164;27.786;2022-08-19T03:44:05;100030.78;;;23.63;65.76
63088;BME280;49173;43.164;27.786;2022-08-19T03:46:32;100029.41;;;23.67;65.96
63088;BME280;49173;43.164;27.786;2022-08-19T03:49:02;100030.94;;;23.70;66.26
63088;BME280;49173;43.164;27.786;2022-08-19T03:51:36;100025.47;;;23.70;66.06
63088;BME280;49173;43.164;27.786;2022-08-19T03:54:05;100034.34;;;23.72;66.18
63088;BME280;49173;43.164;27.786;2022-08-19T03:56:37;100038.97;;;23.71;66.51
63088;BME280;49173;43.164;27.786;2022-08-19T03:59:05;100046.34;;;23.71;66.38
63088;BME280;49173;43.164;27.786;2022-08-19T04:01:31;100049.56;;;23.74;65.99
63088;BME280;49173;43.164;27.786;2022-08-19T04:03:58;100051.63;;;23.80;65.98
63088;BME280;49173;43.164;27.786;2022-08-19T04:06:30;100041.84;;;23.86;65.76
63088;BME280;49173;43.164;27.786;2022-08-19T04:08:58;100054.66;;;23.94;65.46
63088;BME280;49173;43.164;27.786;2022-08-19T04:11:27;100047.59;;;23.99;65.41
63088;BME280;49173;43.164;27.786;2022-08-19T04:13:54;100053.56;;;24.03;65.88
63088;BME280;49173;43.164;27.786;2022-08-19T04:16:23;100050.09;;;24.09;65.37
63088;BME280;49173;43.164;27.786;2022-08-19T04:18:50;100062.00;;;24.24;65.20
63088;BME280;49173;43.164;27.786;2022-08-19T04:21:19;100053.31;;;24.52;64.53
63088;BME280;49173;43.164;27.786;2022-08-19T04:23:45;100053.34;;;24.75;63.95
63088;BME280;49173;43.164;27.786;2022-08-19T04:26:15;100052.34;;;24.90;63.67
63088;BME280;49173;43.164;27.786;2022-08-19T04:28:42;100060.69;;;24.97;63.61
63088;BME280;49173;43.164;27.786;2022-08-19T04:31:17;100061.16;;;25.01;63.13
63088;BME280;49173;43.164;27.786;2022-08-19T04:33:43;100067.66;;;25.08;63.33
63088;BME280;49173;43.164;27.786;2022-08-19T04:36:19;100062.47;;;25.13;63.84
63088;BME280;49173;43.164;27.786;2022-08-19T04:38:50;100071.66;;;25.20;63.25
63088;BME280;49173;43.164;27.786;2022-08-19T04:41:18;100073.97;;;25.31;62.42
63088;BME280;49173;43.164;27.786;2022-08-19T04:44:05;100082.03;;;25.47;63.10
63088;BME280;49173;43.164;27.786;2022-08-19T04:46:31;100079.84;;;25.58;63.67
63088;BME280;49173;43.164;27.786;2022-08-19T04:48:58;100079.78;;;25.66;62.92
63088;BME280;49173;43.164;27.786;2022-08-19T04:51:25;100082.16;;;25.69;62.57
63088;BME280;49173;43.164;27.786;2022-08-19T04:53:51;100073.84;;;25.77;62.33
63088;BME280;49173;43.164;27.786;2022-08-19T04:56:19;100068.44;;;25.84;61.48
63088;BME280;49173;43.164;27.786;2022-08-19T04:58:47;100077.94;;;25.81;62.26
63088;BME280;49173;43.164;27.786;2022-08-19T05:01:25;100074.59;;;25.86;61.42
63088;BME280;49173;43.164;27.786;2022-08-19T05:03:52;100079.81;;;25.95;60.83
63088;BME280;49173;43.164;27.786;2022-08-19T05:06:20;100079.22;;;26.00;60.30
63088;BME280;49173;43.164;27.786;2022-08-19T05:08:47;100076.56;;;26.07;60.48
63088;BME280;49173;43.164;27.786;2022-08-19T05:11:20;100074.09;;;26.12;60.62
63088;BME280;49173;43.164;27.786;2022-08-19T05:13:47;100079.47;;;26.20;60.39
63088;BME280;49173;43.164;27.786;2022-08-19T05:16:16;100087.81;;;26.26;59.64
63088;BME280;49173;43.164;27.786;2022-08-19T05:18:43;100073.28;;;26.33;59.50
63088;BME280;49173;43.164;27.786;2022-08-19T05:21:28;100079.44;;;26.35;59.04
63088;BME280;49173;43.164;27.786;2022-08-19T05:24:13;100080.41;;;26.42;58.92
63088;BME280;49173;43.164;27.786;2022-08-19T05:26:42;100084.94;;;26.49;58.72
63088;BME280;49173;43.164;27.786;2022-08-19T05:29:09;100075.00;;;26.48;58.55
63088;BME280;49173;43.164;27.786;2022-08-19T05:31:36;100080.56;;;26.55;58.52
63088;BME280;49173;43.164;27.786;2022-08-19T05:34:04;100080.56;;;26.55;58.40
63088;BME280;49173;43.164;27.786;2022-08-19T05:36:35;100073.44;;;26.61;58.40
63088;BME280;49173;43.164;27.786;2022-08-19T05:39:02;100065.66;;;26.64;58.26
63088;BME280;49173;43.164;27.786;2022-08-19T05:41:29;100061.06;;;26.71;58.15
63088;BME280;49173;43.164;27.786;2022-08-19T05:43:57;100062.63;;;26.80;57.96
63088;BME280;49173;43.164;27.786;2022-08-19T05:46:23;100068.59;;;26.84;57.84
63088;BME280;49173;43.164;27.786;2022-08-19T05:48:50;100064.66;;;26.93;57.35
63088;BME280;49173;43.164;27.786;2022-08-19T05:51:16;100066.16;;;26.96;57.21
63088;BME280;49173;43.164;27.786;2022-08-19T05:53:42;100066.75;;;26.91;57.03
63088;BME280;49173;43.164;27.786;2022-08-19T05:56:12;100066.81;;;26.98;57.02
63088;BME280;49173;43.164;27.786;2022-08-19T05:58:40;100068.59;;;27.05;57.12
63088;BME280;49173;43.164;27.786;2022-08-19T06:01:12;100062.09;;;27.13;55.83
63088;BME280;49173;43.164;27.786;2022-08-19T06:03:42;100060.38;;;27.12;55.77
63088;BME280;49173;43.164;27.786;2022-08-19T06:06:10;100060.38;;;27.12;55.65
63088;BME280;49173;43.164;27.786;2022-08-19T06:08:37;100059.09;;;27.08;55.30
63088;BME280;49173;43.164;27.786;2022-08-19T06:11:23;100049.56;;;27.10;55.55
63088;BME280;49173;43.164;27.786;2022-08-19T06:13:52;100051.97;;;27.20;55.92
63088;BME280;49173;43.164;27.786;2022-08-19T06:16:19;100049.53;;;27.32;55.83
63088;BME280;49173;43.164;27.786;2022-08-19T06:18:49;100050.69;;;27.44;55.37
63088;BME280;49173;43.164;27.786;2022-08-19T06:21:21;100049.47;;;27.53;54.78
63088;BME280;49173;43.164;27.786;2022-08-19T06:23:49;100040.19;;;27.61;54.95
63088;BME280;49173;43.164;27.786;2022-08-19T06:26:18;100045.16;;;27.72;54.71
63088;BME280;49173;43.164;27.786;2022-08-19T06:28:46;100050.31;;;27.82;54.55
63088;BME280;49173;43.164;27.786;2022-08-19T06:31:14;100048.56;;;27.74;53.64
63088;BME280;49173;43.164;27.786;2022-08-19T06:33:43;100040.13;;;27.82;54.40
63088;BME280;49173;43.164;27.786;2022-08-19T06:36:20;100046.09;;;27.86;53.31
63088;BME280;49173;43.164;27.786;2022-08-19T06:38:47;100048.88;;;27.92;53.59
63088;BME280;49173;43.164;27.786;2022-08-19T06:41:13;100041.03;;;27.96;53.23
63088;BME280;49173;43.164;27.786;2022-08-19T06:43:38;100038.94;;;27.98;53.47
63088;BME280;49173;43.164;27.786;2022-08-19T06:46:10;100044.31;;;28.13;53.35
63088;BME280;49173;43.164;27.786;2022-08-19T06:48:37;100039.84;;;28.18;52.85
63088;BME280;49173;43.164;27.786;2022-08-19T06:51:03;100038.81;;;28.19;52.45
63088;BME280;49173;43.164;27.786;2022-08-19T06:53:31;100030.53;;;28.19;52.59
63088;BME280;49173;43.164;27.786;2022-08-19T06:55:57;100033.97;;;28.28;52.68
63088;BME280;49173;43.164;27.786;2022-08-19T06:58:29;100039.34;;;28.43;52.81
63088;BME280;49173;43.164;27.786;2022-08-19T07:01:02;100043.59;;;28.52;52.43
63088;BME280;49173;43.164;27.786;2022-08-19T07:03:31;100030.25;;;28.62;51.48
63088;BME280;49173;43.164;27.786;2022-08-19T07:06:01;100035.78;;;28.69;51.09
63088;BME280;49173;43.164;27.786;2022-08-19T07:08:27;100030.91;;;28.71;51.36
63088;BME280;49173;43.164;27.786;2022-08-19T07:10:53;100038.13;;;28.72;51.84
63088;BME280;49173;43.164;27.786;2022-08-19T07:13:20;100031.13;;;28.83;50.49
63088;BME280;49173;43.164;27.786;2022-08-19T07:15:47;100030.28;;;28.76;50.74
63088;BME280;49173;43.164;27.786;2022-08-19T07:18:18;100029.00;;;28.85;50.37
63088;BME280;49173;43.164;27.786;2022-08-19T07:20:44;100024.72;;;28.82;49.86
63088;BME280;49173;43.164;27.786;2022-08-19T07:23:10;100021.56;;;28.79;50.58
63088;BME280;49173;43.164;27.786;2022-08-19T07:25:37;100027.31;;;28.90;50.82
63088;BME280;49173;43.164;27.786;2022-08-19T07:28:04;100014.56;;;28.96;50.02
63088;BME280;49173;43.164;27.786;2022-08-19T07:30:30;100037.53;;;28.96;49.88
63088;BME280;49173;43.164;27.786;2022-08-19T07:32:56;100020.53;;;28.99;50.00
63088;BME280;49173;43.164;27.786;2022-08-19T07:35:22;100014.78;;;29.01;50.01
63088;BME280;49173;43.164;27.786;2022-08-19T07:37:49;100030.94;;;29.11;49.91
63088;BME280;49173;43.164;27.786;2022-08-19T07:40:15;100016.69;;;29.20;49.69
63088;BME280;49173;43.164;27.786;2022-08-19T07:42:41;100022.00;;;29.28;49.60
63088;BME280;49173;43.164;27.786;2022-08-19T07:45:08;100023.91;;;29.41;49.04
63088;BME280;49173;43.164;27.786;2022-08-19T07:47:35;100029.84;;;29.51;49.10
63088;BME280;49173;43.164;27.786;2022-08-19T07:50:03;100027.09;;;29.51;48.36
63088;BME280;49173;43.164;27.786;2022-08-19T07:52:30;100022.22;;;29.53;48.72
63088;BME280;49173;43.164;27.786;2022-08-19T07:54:55;100035.16;;;29.66;48.86
63088;BME280;49173;43.164;27.786;2022-08-19T07:57:21;100022.59;;;29.70;48.43
63088;BME280;49173;43.164;27.786;2022-08-19T07:59:47;100023.00;;;29.74;48.14
63088;BME280;49173;43.164;27.786;2022-08-19T08:02:13;100029.41;;;29.74;47.83
63088;BME280;49173;43.164;27.786;2022-08-19T08:04:38;100019.59;;;29.72;47.81
63088;BME280;49173;43.164;27.786;2022-08-19T08:07:22;100016.59;;;29.73;47.77
63088;BME280;49173;43.164;27.786;2022-08-19T08:10:07;99999.16;;;29.79;47.94
63088;BME280;49173;43.164;27.786;2022-08-19T08:12:37;100007.84;;;29.90;47.96
63088;BME280;49173;43.164;27.786;2022-08-19T08:15:09;100006.75;;;29.97;47.33
63088;BME280;49173;43.164;27.786;2022-08-19T08:17:36;100003.50;;;30.07;45.32
63088;BME280;49173;43.164;27.786;2022-08-19T08:20:04;100002.84;;;30.18;46.46
63088;BME280;49173;43.164;27.786;2022-08-19T08:22:32;100001.28;;;30.29;46.62
63088;BME280;49173;43.164;27.786;2022-08-19T08:25:22;99992.66;;;30.44;46.36
63088;BME280;49173;43.164;27.786;2022-08-19T08:27:49;99996.75;;;30.41;46.13
63088;BME280;49173;43.164;27.786;2022-08-19T08:30:20;99995.09;;;30.33;45.85
63088;BME280;49173;43.164;27.786;2022-08-19T08:32:51;99998.66;;;30.41;45.13
63088;BME280;49173;43.164;27.786;2022-08-19T08:35:22;99990.97;;;30.43;45.09
63088;BME280;49173;43.164;27.786;2022-08-19T08:37:52;99985.22;;;30.44;44.99
63088;BME280;49173;43.164;27.786;2022-08-19T08:40:28;99987.59;;;30.41;44.97
63088;BME280;49173;43.164;27.786;2022-08-19T08:43:02;99989.91;;;30.44;45.12
63088;BME280;49173;43.164;27.786;2022-08-19T08:45:30;99990.56;;;30.46;45.62
63088;BME280;49173;43.164;27.786;2022-08-19T08:48:02;99991.34;;;30.53;44.52
63088;BME280;49173;43.164;27.786;2022-08-19T08:50:43;99991.16;;;30.48;44.01
63088;BME280;49173;43.164;27.786;2022-08-19T08:53:18;99987.31;;;30.49;43.72
63088;BME280;49173;43.164;27.786;2022-08-19T08:55:45;99978.16;;;30.48;43.79
63088;BME280;49173;43.164;27.786;2022-08-19T08:58:17;99983.91;;;30.53;43.84
63088;BME280;49173;43.164;27.786;2022-08-19T09:00:50;99982.06;;;30.66;44.10
63088;BME280;49173;43.164;27.786;2022-08-19T09:03:22;99979.28;;;30.72;43.74
63088;BME280;49173;43.164;27.786;2022-08-19T09:06:10;99983.31;;;30.76;44.35
63088;BME280;49173;43.164;27.786;2022-08-19T09:12:13;99994.78;;;30.80;42.42
63088;BME280;49173;43.164;27.786;2022-08-19T09:15:04;99997.34;;;30.81;42.63
63088;BME280;49173;43.164;27.786;2022-08-19T09:17:32;99987.97;;;30.82;42.68
63088;BME280;49173;43.164;27.786;2022-08-19T09:20:12;99993.50;;;30.82;41.87
63088;BME280;49173;43.164;27.786;2022-08-19T09:22:46;99992.72;;;30.75;42.46
63088;BME280;49173;43.164;27.786;2022-08-19T09:25:17;100001.41;;;30.79;42.80
63088;BME280;49173;43.164;27.786;2022-08-19T09:27:43;99989.25;;;30.80;42.73
63088;BME280;49173;43.164;27.786;2022-08-19T09:30:17;99989.13;;;30.93;42.53
63088;BME280;49173;43.164;27.786;2022-08-19T09:32:44;99990.34;;;31.04;42.58
63088;BME280;49173;43.164;27.786;2022-08-19T09:35:17;99989.81;;;31.13;41.41
63088;BME280;49173;43.164;27.786;2022-08-19T09:37:43;100001.06;;;31.18;41.72
63088;BME280;49173;43.164;27.786;2022-08-19T09:40:10;99999.63;;;31.16;39.66
63088;BME280;49173;43.164;27.786;2022-08-19T09:42:37;99998.31;;;31.18;40.31
63088;BME280;49173;43.164;27.786;2022-08-19T09:45:04;99996.59;;;31.17;40.55
63088;BME280;49173;43.164;27.786;2022-08-19T09:47:36;99998.91;;;31.21;40.61
63088;BME280;49173;43.164;27.786;2022-08-19T09:50:05;99998.66;;;31.29;41.11
63088;BME280;49173;43.164;27.786;2022-08-19T09:52:36;99994.22;;;31.46;40.53
63088;BME280;49173;43.164;27.786;2022-08-19T09:55:07;99991.97;;;31.55;40.15
63088;BME280;49173;43.164;27.786;2022-08-19T09:57:34;99990.59;;;31.64;40.17
63088;BME280;49173;43.164;27.786;2022-08-19T10:00:03;99985.19;;;31.69;38.97
63088;BME280;49173;43.164;27.786;2022-08-19T10:02:32;99996.00;;;31.59;39.17
63088;BME280;49173;43.164;27.786;2022-08-19T10:04:59;99991.66;;;31.63;40.73
63088;BME280;49173;43.164;27.786;2022-08-19T10:07:46;99991.59;;;31.69;40.40
63088;BME280;49173;43.164;27.786;2022-08-19T10:10:21;99992.44;;;31.70;39.55
63088;BME280;49173;43.164;27.786;2022-08-19T10:12:48;99998.16;;;31.75;39.70
63088;BME280;49173;43.164;27.786;2022-08-19T10:15:14;99996.41;;;31.81;40.10
63088;BME280;49173;43.164;27.786;2022-08-19T10:17:41;99985.34;;;31.92;39.79
63088;BME280;49173;43.164;27.786;2022-08-19T10:20:07;99990.91;;;31.92;37.40
63088;BME280;49173;43.164;27.786;2022-08-19T10:22:35;99997.03;;;31.83;37.98
63088;BME280;49173;43.164;27.786;2022-08-19T10:25:04;99986.94;;;31.88;38.83
63088;BME280;49173;43.164;27.786;2022-08-19T10:27:33;99990.13;;;32.04;39.28
63088;BME280;49173;43.164;27.786;2022-08-19T10:30:02;99990.56;;;32.19;38.66
63088;BME280;49173;43.164;27.786;2022-08-19T10:32:31;99988.44;;;32.21;38.85
63088;BME280;49173;43.164;27.786;2022-08-19T10:34:57;99992.91;;;32.22;38.12
63088;BME280;49173;43.164;27.786;2022-08-19T10:37:24;99993.50;;;32.24;38.19
63088;BME280;49173;43.164;27.786;2022-08-19T10:39:50;99987.19;;;32.35;38.07
63088;BME280;49173;43.164;27.786;2022-08-19T10:42:19;99990.72;;;32.42;38.98
63088;BME280;49173;43.164;27.786;2022-08-19T10:44:46;99996.88;;;32.44;37.69
63088;BME280;49173;43.164;27.786;2022-08-19T10:47:15;99993.09;;;32.39;36.96
63088;BME280;49173;43.164;27.786;2022-08-19T10:49:51;99993.81;;;32.34;36.88
63088;BME280;49173;43.164;27.786;2022-08-19T10:52:43;99994.09;;;32.44;36.83
63088;BME280;49173;43.164;27.786;2022-08-19T10:55:11;99997.63;;;32.51;37.34
63088;BME280;49173;43.164;27.786;2022-08-19T10:57:56;99989.28;;;32.51;37.10
63088;BME280;49173;43.164;27.786;2022-08-19T11:00:23;99991.97;;;32.58;36.97
63088;BME280;49173;43.164;27.786;2022-08-19T11:02:53;99987.50;;;32.69;36.53
63088;BME280;49173;43.164;27.786;2022-08-19T11:05:19;99992.50;;;32.78;36.26
63088;BME280;49173;43.164;27.786;2022-08-19T11:07:46;99992.66;;;32.95;35.93
63088;BME280;49173;43.164;27.786;2022-08-19T11:10:14;99989.19;;;33.00;35.19
63088;BME280;49173;43.164;27.786;2022-08-19T11:12:41;99998.13;;;33.02;35.40
63088;BME280;49173;43.164;27.786;2022-08-19T11:15:11;99999.91;;;32.96;35.35
63088;BME280;49173;43.164;27.786;2022-08-19T11:17:38;99986.16;;;33.01;35.55
63088;BME280;49173;43.164;27.786;2022-08-19T11:20:13;99988.84;;;33.20;35.55
63088;BME280;49173;43.164;27.786;2022-08-19T11:22:40;99989.19;;;33.35;35.53
63088;BME280;49173;43.164;27.786;2022-08-19T11:25:09;99980.72;;;33.53;35.16
63088;BME280;49173;43.164;27.786;2022-08-19T11:27:42;99979.88;;;33.65;33.35
63088;BME280;49173;43.164;27.786;2022-08-19T11:30:12;99971.75;;;33.63;33.74
63088;BME280;49173;43.164;27.786;2022-08-19T11:32:43;99977.47;;;33.56;33.95
63088;BME280;49173;43.164;27.786;2022-08-19T11:35:12;99969.00;;;33.51;34.61
63088;BME280;49173;43.164;27.786;2022-08-19T11:37:40;99977.84;;;33.48;36.16
63088;BME280;49173;43.164;27.786;2022-08-19T11:40:07;99972.03;;;33.38;36.89
63088;BME280;49173;43.164;27.786;2022-08-19T11:42:36;99967.78;;;33.36;37.55
63088;BME280;49173;43.164;27.786;2022-08-19T11:45:22;99969.84;;;33.40;36.47
63088;BME280;49173;43.164;27.786;2022-08-19T11:47:51;99960.03;;;33.49;35.46
63088;BME280;49173;43.164;27.786;2022-08-19T11:50:17;99968.16;;;33.51;34.71
63088;BME280;49173;43.164;27.786;2022-08-19T11:52:45;99969.44;;;33.60;35.22
63088;BME280;49173;43.164;27.786;2022-08-19T11:55:13;99962.31;;;33.52;35.53
63088;BME280;49173;43.164;27.786;2022-08-19T11:57:43;99954.69;;;33.36;36.23
63088;BME280;49173;43.164;27.786;2022-08-19T12:00:11;99961.03;;;33.43;39.75
63088;BME280;49173;43.164;27.786;2022-08-19T12:02:39;99968.66;;;33.48;41.27
63088;BME280;49173;43.164;27.786;2022-08-19T12:05:05;99966.09;;;33.46;41.43
63088;BME280;49173;43.164;27.786;2022-08-19T12:07:32;99974.56;;;33.28;42.26
63088;BME280;49173;43.164;27.786;2022-08-19T12:09:59;99970.91;;;33.16;42.73
63088;BME280;49173;43.164;27.786;2022-08-19T12:12:26;99961.22;;;33.18;42.62
63088;BME280;49173;43.164;27.786;2022-08-19T12:14:53;99963.28;;;33.11;41.50
63088;BME280;49173;43.164;27.786;2022-08-19T12:17:23;99967.03;;;32.93;41.35
63088;BME280;49173;43.164;27.786;2022-08-19T12:19:53;99966.13;;;32.81;41.52
63088;BME280;49173;43.164;27.786;2022-08-19T12:22:19;99963.84;;;32.78;42.22
63088;BME280;49173;43.164;27.786;2022-08-19T12:24:47;99961.06;;;32.78;42.13
63088;BME280;49173;43.164;27.786;2022-08-19T12:27:13;99966.00;;;32.76;42.06
63088;BME280;49173;43.164;27.786;2022-08-19T12:29:39;99964.19;;;32.70;42.56
63088;BME280;49173;43.164;27.786;2022-08-19T12:32:05;99964.28;;;32.51;42.71
63088;BME280;49173;43.164;27.786;2022-08-19T12:34:32;99964.00;;;32.41;42.95
63088;BME280;49173;43.164;27.786;2022-08-19T12:37:00;99963.78;;;32.55;44.08
63088;BME280;49173;43.164;27.786;2022-08-19T12:39:26;99966.97;;;32.70;43.34
63088;BME280;49173;43.164;27.786;2022-08-19T12:41:53;99971.31;;;32.66;42.67
63088;BME280;49173;43.164;27.786;2022-08-19T12:44:19;99975.44;;;32.63;42.31
63088;BME280;49173;43.164;27.786;2022-08-19T12:46:46;99980.25;;;32.68;42.20
63088;BME280;49173;43.164;27.786;2022-08-19T12:49:12;99973.06;;;32.48;42.18
63088;BME280;49173;43.164;27.786;2022-08-19T12:51:38;99977.97;;;32.35;42.27
63088;BME280;49173;43.164;27.786;2022-08-19T12:54:04;99981.44;;;32.30;42.31
63088;BME280;49173;43.164;27.786;2022-08-19T12:56:32;99980.84;;;32.28;42.93
63088;BME280;49173;43.164;27.786;2022-08-19T12:59:02;99978.72;;;32.42;42.86